Time;durP1;ratioP1;P1;durP2;ratioP2;P2;SDS_P1;SDS_P2;PMS_P1;PMS_P2;Temp;Humidity;BMP_temperature;BMP_pressure;BME280_temperature;BME280_humidity;BME280_pressure;Samples;Min_cycle;Max_cycle;Signal;HPM_P1;HPM_P2
2023/05/07 00:00:42;;;;;;;2.43;2.23;;;12.10;99.90;;;;;;5101499;23;20210;-68
2023/05/07 00:03:09;;;;;;;2.83;2.47;;;12.00;99.90;;;;;;5118072;22;1205954;-68
2023/05/07 00:05:35;;;;;;;4.50;3.23;;;12.00;99.90;;;;;;5028432;28;20221;-68
2023/05/07 00:08:02;;;;;;;2.87;2.57;;;12.00;99.90;;;;;;5031570;28;20510;-68
2023/05/07 00:10:29;;;;;;;5.05;4.07;;;12.00;99.90;;;;;;5031153;28;20456;-68
2023/05/07 00:12:55;;;;;;;13.60;7.00;;;12.00;99.90;;;;;;5031124;28;20244;-68
2023/05/07 00:15:23;;;;;;;5.10;4.60;;;11.90;99.90;;;;;;5024160;28;20465;-68
2023/05/07 00:17:50;;;;;;;4.68;4.25;;;11.90;99.90;;;;;;5011200;28;20253;-68
2023/05/07 00:20:17;;;;;;;6.20;3.73;;;11.90;99.90;;;;;;5011183;28;20244;-68
2023/05/07 00:22:43;;;;;;;5.87;4.40;;;12.00;99.90;;;;;;5010913;28;21061;-68
2023/05/07 00:25:11;;;;;;;6.03;4.07;;;11.90;99.90;;;;;;5011081;28;20948;-68
2023/05/07 00:27:37;;;;;;;3.00;2.70;;;11.90;99.90;;;;;;5011406;28;20557;-68
2023/05/07 00:30:05;;;;;;;3.10;2.80;;;11.90;99.90;;;;;;5011276;28;20864;-69
2023/05/07 00:32:33;;;;;;;2.57;2.37;;;11.90;99.90;;;;;;5010900;28;20469;-68
2023/05/07 00:35:00;;;;;;;2.83;2.50;;;11.90;99.90;;;;;;5011069;28;20461;-68
2023/05/07 00:37:26;;;;;;;3.23;2.47;;;11.90;99.90;;;;;;5019101;28;20240;-69
2023/05/07 00:39:53;;;;;;;2.57;2.37;;;11.90;99.90;;;;;;5031634;28;20468;-69
2023/05/07 00:42:20;;;;;;;2.60;2.40;;;11.90;99.90;;;;;;5031057;28;20480;-68
2023/05/07 00:44:47;;;;;;;3.08;2.50;;;11.90;99.90;;;;;;5030932;28;21026;-68
2023/05/07 00:47:15;;;;;;;2.58;2.38;;;11.90;99.90;;;;;;5030940;28;20217;-68
2023/05/07 00:49:45;;;;;;;3.40;2.67;;;11.90;99.90;;;;;;5021406;28;20210;-68
2023/05/07 00:52:14;;;;;;;2.33;2.13;;;11.90;99.90;;;;;;5010887;28;20198;-68
2023/05/07 00:54:42;;;;;;;2.97;2.40;;;11.90;99.90;;;;;;5010581;28;20523;-68
2023/05/07 00:57:10;;;;;;;7.67;2.40;;;11.90;99.90;;;;;;5010844;28;20485;-68
2023/05/07 00:59:37;;;;;;;2.55;2.35;;;11.90;99.90;;;;;;5010818;28;20515;-68
2023/05/07 01:02:04;;;;;;;2.80;2.10;;;11.90;99.90;;;;;;5009957;28;20219;-69
2023/05/07 01:04:31;;;;;;;2.90;2.60;;;11.90;99.90;;;;;;5011351;28;20497;-69
2023/05/07 01:07:01;;;;;;;2.37;2.00;;;11.90;99.90;;;;;;5010738;28;21000;-68
2023/05/07 01:09:29;;;;;;;2.47;2.27;;;11.80;99.90;;;;;;5010566;28;20466;-68
2023/05/07 01:11:57;;;;;;;2.80;2.60;;;11.80;99.90;;;;;;5010605;28;20511;-68
2023/05/07 01:14:25;;;;;;;2.63;2.43;;;11.80;99.90;;;;;;5010279;28;20502;-68
2023/05/07 01:16:53;;;;;;;2.30;2.10;;;11.80;99.90;;;;;;5010576;28;20556;-68
2023/05/07 01:19:20;;;;;;;2.93;2.40;;;11.80;99.90;;;;;;5010476;28;20884;-68
2023/05/07 01:21:49;;;;;;;2.90;2.40;;;11.80;99.90;;;;;;5010436;28;20527;-68
2023/05/07 01:24:17;;;;;;;2.77;2.30;;;11.80;99.90;;;;;;5010154;28;20469;-68
2023/05/07 01:26:45;;;;;;;2.20;2.00;;;11.80;99.90;;;;;;5010458;28;20489;-68
2023/05/07 01:29:11;;;;;;;2.80;2.10;;;11.70;99.90;;;;;;5010320;28;20519;-68
2023/05/07 01:31:38;;;;;;;2.20;2.00;;;11.70;99.90;;;;;;5010272;28;20225;-68
2023/05/07 01:34:08;;;;;;;3.60;2.63;;;11.70;99.90;;;;;;5010386;28;20202;-68
2023/05/07 01:36:35;;;;;;;2.67;2.42;;;11.70;99.90;;;;;;5010293;28;20563;-68
2023/05/07 01:39:03;;;;;;;3.58;3.05;;;11.70;99.90;;;;;;5010328;28;20202;-68
2023/05/07 01:41:32;;;;;;;3.47;3.17;;;11.70;99.90;;;;;;5010314;28;20276;-68
2023/05/07 01:44:00;;;;;;;3.63;2.38;;;11.60;99.90;;;;;;5010142;28;20202;-68
2023/05/07 01:46:27;;;;;;;3.65;2.53;;;11.60;99.90;;;;;;5010204;28;20218;-68
2023/05/07 01:48:54;;;;;;;5.10;2.75;;;11.60;99.90;;;;;;5010098;28;20206;-68
2023/05/07 01:51:22;;;;;;;4.03;2.97;;;11.60;99.90;;;;;;5010032;28;20199;-68
2023/05/07 01:53:50;;;;;;;3.17;2.70;;;11.60;99.90;;;;;;5009888;28;20229;-68
2023/05/07 01:56:17;;;;;;;3.47;2.47;;;11.60;99.90;;;;;;5010277;28;20899;-68
2023/05/07 01:58:45;;;;;;;2.47;2.28;;;11.60;99.90;;;;;;5009990;28;20478;-68
2023/05/07 02:01:12;;;;;;;5.93;2.53;;;11.60;99.90;;;;;;5009977;28;20620;-68
2023/05/07 02:03:39;;;;;;;3.17;2.75;;;11.60;99.90;;;;;;5009707;28;20477;-69
2023/05/07 02:06:06;;;;;;;2.90;2.70;;;11.60;99.90;;;;;;5010167;28;20222;-68
2023/05/07 02:08:32;;;;;;;2.50;2.30;;;11.60;99.90;;;;;;5010266;28;20464;-68
2023/05/07 02:10:59;;;;;;;3.58;2.60;;;11.50;99.90;;;;;;5010048;28;20202;-69
2023/05/07 02:13:27;;;;;;;2.40;2.20;;;11.50;99.90;;;;;;5011378;28;20190;-68
2023/05/07 02:15:55;;;;;;;3.45;2.72;;;11.50;99.90;;;;;;5013656;28;20485;-68
2023/05/07 02:18:22;;;;;;;2.42;2.22;;;11.50;99.90;;;;;;5013588;28;20595;-68
2023/05/07 02:20:48;;;;;;;3.07;2.80;;;11.50;99.90;;;;;;5013732;28;20210;-68
2023/05/07 02:23:15;;;;;;;2.40;2.20;;;11.50;99.90;;;;;;5013179;28;20481;-68
2023/05/07 02:25:42;;;;;;;3.03;2.30;;;11.50;99.90;;;;;;5013513;28;20229;-68
2023/05/07 02:28:08;;;;;;;3.47;2.40;;;11.50;99.90;;;;;;5017886;28;20202;-68
2023/05/07 02:30:35;;;;;;;2.60;2.40;;;11.40;99.90;;;;;;5033170;28;20468;-68
2023/05/07 02:33:03;;;;;;;2.85;2.63;;;11.40;99.90;;;;;;5032956;28;20547;-68
2023/05/07 02:35:30;;;;;;;2.70;2.50;;;11.40;99.90;;;;;;5033230;28;20221;-68
2023/05/07 02:37:56;;;;;;;2.40;2.20;;;11.40;99.90;;;;;;5033331;28;20464;-68
2023/05/07 02:40:23;;;;;;;2.35;2.15;;;11.30;99.90;;;;;;5034015;28;20193;-68
2023/05/07 02:42:50;;;;;;;2.55;2.35;;;11.30;99.90;;;;;;5033617;28;20213;-69
2023/05/07 02:45:17;;;;;;;3.40;2.60;;;11.30;99.90;;;;;;5033554;28;20202;-68
2023/05/07 02:47:43;;;;;;;3.30;2.30;;;11.30;99.90;;;;;;5033722;28;20209;-69
2023/05/07 02:50:12;;;;;;;4.68;2.63;;;11.30;99.90;;;;;;5033282;28;20194;-69
2023/05/07 02:52:38;;;;;;;2.43;2.23;;;11.30;99.90;;;;;;5033324;28;20213;-68
2023/05/07 02:55:06;;;;;;;2.13;1.92;;;11.20;99.90;;;;;;5033311;28;20936;-68
2023/05/07 02:57:33;;;;;;;2.60;2.40;;;11.20;99.90;;;;;;5033395;28;20288;-69
2023/05/07 03:00:00;;;;;;;3.10;2.33;;;11.20;99.90;;;;;;5032776;28;20201;-68
2023/05/07 03:02:26;;;;;;;2.53;2.33;;;11.30;99.90;;;;;;5032790;28;20221;-68
2023/05/07 03:04:53;;;;;;;2.30;2.10;;;11.30;99.90;;;;;;5032664;28;20562;-68
2023/05/07 03:07:21;;;;;;;2.33;2.13;;;11.30;99.90;;;;;;5032742;28;20704;-68
2023/05/07 03:09:47;;;;;;;2.95;2.65;;;11.30;99.90;;;;;;5032798;28;20674;-68
2023/05/07 03:12:14;;;;;;;2.65;2.40;;;11.20;99.90;;;;;;5032718;28;20672;-68
2023/05/07 03:14:41;;;;;;;2.53;2.33;;;11.20;99.90;;;;;;5032581;28;20216;-69
2023/05/07 03:17:07;;;;;;;3.78;2.70;;;11.10;99.90;;;;;;5032732;28;20283;-68
2023/05/07 03:19:34;;;;;;;3.20;2.72;;;11.10;99.90;;;;;;5032777;28;20260;-68
2023/05/07 03:22:01;;;;;;;2.47;1.90;;;11.10;99.90;;;;;;5032657;28;20201;-68
2023/05/07 03:24:29;;;;;;;2.40;2.20;;;11.00;99.90;;;;;;5031217;28;20685;-69
2023/05/07 03:26:57;;;;;;;2.42;2.22;;;10.90;99.90;;;;;;5032614;28;20222;-68
2023/05/07 03:29:24;;;;;;;2.72;2.53;;;10.90;99.90;;;;;;5032303;28;20200;-68
2023/05/07 03:31:50;;;;;;;3.05;2.33;;;10.90;99.90;;;;;;5032298;28;20205;-68
2023/05/07 03:34:21;;;;;;;2.60;2.20;;;10.90;99.90;;;;;;5032081;28;20539;-68
2023/05/07 03:36:48;;;;;;;2.40;2.20;;;10.80;99.90;;;;;;5032275;28;20232;-68
2023/05/07 03:39:15;;;;;;;2.75;2.08;;;10.80;99.90;;;;;;5032142;28;20620;-68
2023/05/07 03:41:43;;;;;;;2.03;1.92;;;10.80;99.90;;;;;;5032488;28;20296;-68
2023/05/07 03:44:09;;;;;;;2.35;2.10;;;10.80;99.90;;;;;;5004371;28;20214;-68
2023/05/07 03:46:36;;;;;;;2.33;2.13;;;10.80;99.90;;;;;;5012405;28;20225;-68
2023/05/07 03:49:03;;;;;;;2.47;2.28;;;10.70;99.90;;;;;;5013200;28;20207;-68
2023/05/07 03:51:30;;;;;;;2.95;2.38;;;10.70;99.90;;;;;;5013416;28;20641;-68
2023/05/07 03:53:57;;;;;;;3.83;2.53;;;10.70;99.90;;;;;;5012840;28;20293;-68
2023/05/07 03:56:26;;;;;;;2.55;2.35;;;10.70;99.90;;;;;;5012707;28;20305;-68
2023/05/07 03:58:54;;;;;;;2.47;2.20;;;10.60;99.90;;;;;;5012310;28;20276;-69
2023/05/07 04:01:20;;;;;;;3.38;2.33;;;10.60;99.90;;;;;;5012141;28;20198;-68
2023/05/07 04:03:47;;;;;;;3.00;2.70;;;10.60;99.90;;;;;;5012087;28;20214;-68
2023/05/07 04:06:14;;;;;;;2.30;2.10;;;10.60;99.90;;;;;;5024419;28;20221;-68
2023/05/07 04:08:41;;;;;;;2.40;2.20;;;10.60;99.90;;;;;;5031882;28;20213;-68
2023/05/07 04:11:07;;;;;;;2.13;1.95;;;10.50;99.90;;;;;;5031928;28;20201;-68
2023/05/07 04:13:34;;;;;;;2.38;2.17;;;10.60;99.90;;;;;;5031602;28;20641;-68
2023/05/07 04:16:03;;;;;;;1.92;1.83;;;10.50;99.90;;;;;;5031933;28;20221;-68
2023/05/07 04:18:30;;;;;;;2.08;1.88;;;10.50;99.90;;;;;;5032555;28;20202;-68
2023/05/07 04:20:57;;;;;;;2.65;2.42;;;10.50;99.90;;;;;;5032035;28;20209;-69
2023/05/07 04:23:23;;;;;;;2.55;2.35;;;10.50;99.90;;;;;;5031631;28;20213;-68
2023/05/07 04:25:51;;;;;;;2.10;1.98;;;10.50;99.90;;;;;;5031572;28;20218;-68
2023/05/07 04:28:19;;;;;;;2.50;2.30;;;10.50;99.90;;;;;;5031361;28;20198;-68
2023/05/07 04:30:45;;;;;;;5.00;2.67;;;10.50;99.90;;;;;;5032066;28;20576;-68
2023/05/07 04:33:15;;;;;;;2.53;2.33;;;10.60;99.90;;;;;;5031128;28;20201;-68
2023/05/07 04:35:42;;;;;;;1.75;1.65;;;10.60;99.90;;;;;;5031470;28;20708;-68
2023/05/07 04:38:09;;;;;;;2.15;1.95;;;10.60;99.90;;;;;;5031628;28;20197;-68
2023/05/07 04:40:36;;;;;;;2.40;2.20;;;10.60;99.90;;;;;;5031598;28;20208;-68
2023/05/07 04:43:03;;;;;;;2.45;2.25;;;10.60;99.90;;;;;;5030779;28;20217;-68
2023/05/07 04:45:30;;;;;;;2.55;2.20;;;10.60;99.90;;;;;;5031688;28;20224;-68
2023/05/07 04:47:57;;;;;;;2.55;2.25;;;10.60;99.90;;;;;;5031365;28;20206;-68
2023/05/07 04:50:25;;;;;;;2.75;2.55;;;10.60;99.90;;;;;;5030901;28;20198;-68
2023/05/07 04:52:52;;;;;;;2.42;2.22;;;10.60;99.90;;;;;;5030543;28;20205;-68
2023/05/07 04:55:19;;;;;;;2.03;1.83;;;10.60;99.90;;;;;;5030610;28;20201;-68
2023/05/07 04:57:46;;;;;;;3.53;2.75;;;10.70;99.90;;;;;;5031175;28;20209;-68
2023/05/07 05:00:14;;;;;;;3.08;2.58;;;10.80;99.90;;;;;;5003002;28;20194;-68
2023/05/07 05:02:40;;;;;;;3.10;2.80;;;10.70;99.90;;;;;;5010978;28;20249;-68
2023/05/07 05:05:08;;;;;;;2.22;2.03;;;10.80;99.90;;;;;;5011032;28;20658;-68
2023/05/07 05:10:14;;;;;;;2.42;2.22;;;10.80;99.90;;;;;;5017269;28;20218;-69
2023/05/07 05:12:40;;;;;;;2.25;2.05;;;10.80;99.90;;;;;;5009671;28;20210;-69
2023/05/07 05:15:10;;;;;;;2.35;2.13;;;10.90;99.90;;;;;;5010088;28;20214;-69
2023/05/07 05:17:36;;;;;;;2.60;2.40;;;10.90;99.90;;;;;;5005728;28;20206;-67
2023/05/07 05:20:04;;;;;;;2.53;2.30;;;11.00;99.90;;;;;;5009696;28;20207;-69
2023/05/07 05:22:31;;;;;;;3.20;2.30;;;11.00;99.90;;;;;;5010344;28;20198;-68
2023/05/07 05:24:58;;;;;;;2.20;2.00;;;11.10;99.90;;;;;;5009764;28;20202;-69
2023/05/07 05:27:26;;;;;;;2.42;2.22;;;11.30;99.90;;;;;;5010326;28;20214;-69
2023/05/07 05:29:53;;;;;;;4.65;2.30;;;11.40;99.90;;;;;;5009959;28;20206;-68
2023/05/07 05:32:19;;;;;;;2.20;2.00;;;11.50;99.90;;;;;;5010304;28;20203;-68
2023/05/07 05:34:46;;;;;;;2.40;2.20;;;11.70;99.90;;;;;;5009911;28;20202;-68
2023/05/07 05:37:13;;;;;;;2.00;1.80;;;11.90;99.90;;;;;;5010260;28;20335;-69
2023/05/07 05:39:39;;;;;;;3.17;2.63;;;12.00;99.90;;;;;;5010129;28;21055;-68
2023/05/07 05:42:06;;;;;;;2.50;2.23;;;12.20;99.90;;;;;;5010019;28;20209;-69
2023/05/07 05:44:34;;;;;;;4.43;3.03;;;12.40;99.90;;;;;;5009874;28;20484;-69
2023/05/07 05:47:01;;;;;;;3.50;2.90;;;12.50;99.90;;;;;;5009922;28;21068;-68
2023/05/07 05:49:28;;;;;;;2.70;2.47;;;12.70;99.90;;;;;;5005736;28;20477;-68
2023/05/07 05:51:55;;;;;;;2.63;2.43;;;12.90;99.90;;;;;;5005147;28;20458;-69
2023/05/07 05:54:22;;;;;;;5.50;2.70;;;13.10;99.90;;;;;;5002533;28;20466;-68
2023/05/07 05:56:49;;;;;;;2.53;2.33;;;13.30;99.90;;;;;;5010504;28;21064;-67
2023/05/07 05:59:16;;;;;;;3.50;2.77;;;13.50;99.90;;;;;;4994337;28;20475;-69
2023/05/07 06:01:44;;;;;;;4.00;3.03;;;13.70;99.90;;;;;;5001267;28;20813;-69
2023/05/07 06:04:10;;;;;;;2.37;2.17;;;13.90;99.90;;;;;;5013567;28;20489;-70
2023/05/07 06:06:37;;;;;;;2.83;2.63;;;14.00;99.90;;;;;;5013894;28;20503;-67
2023/05/07 06:09:04;;;;;;;3.30;2.33;;;14.20;99.90;;;;;;5013449;28;20476;-67
2023/05/07 06:11:32;;;;;;;2.53;2.33;;;14.40;99.90;;;;;;5005867;28;20461;-67
2023/05/07 06:13:58;;;;;;;3.87;2.47;;;14.50;99.90;;;;;;5013352;28;20839;-67
2023/05/07 06:16:25;;;;;;;2.80;2.60;;;14.60;99.90;;;;;;5013584;28;20919;-67
2023/05/07 06:18:53;;;;;;;2.50;2.30;;;14.60;99.90;;;;;;5013228;28;20465;-67
2023/05/07 06:21:20;;;;;;;2.57;2.33;;;14.70;99.90;;;;;;5005734;28;20471;-67
2023/05/07 06:23:47;;;;;;;3.20;2.90;;;14.80;99.90;;;;;;5005576;28;20485;-66
2023/05/07 06:26:13;;;;;;;3.50;3.20;;;15.00;99.90;;;;;;4993692;28;20517;-67
2023/05/07 06:28:40;;;;;;;3.60;3.10;;;15.10;99.90;;;;;;5008179;28;20472;-67
2023/05/07 06:31:15;;;;;;;3.10;2.70;;;15.20;99.90;;;;;;5013151;28;20472;-67
2023/05/07 06:33:42;;;;;;;3.70;3.30;;;15.30;99.90;;;;;;5013104;28;20530;-67
2023/05/07 06:36:10;;;;;;;3.70;2.47;;;15.40;99.90;;;;;;5013364;28;20485;-68
2023/05/07 06:38:37;;;;;;;3.00;2.47;;;15.40;99.90;;;;;;5013258;28;21221;-67
2023/05/07 06:41:03;;;;;;;3.43;2.20;;;15.30;99.90;;;;;;5005250;28;20469;-67
2023/05/07 06:43:30;;;;;;;3.10;2.80;;;15.30;99.90;;;;;;4996615;28;20450;-67
2023/05/07 06:45:57;;;;;;;3.20;2.90;;;15.30;99.90;;;;;;5001848;28;20223;-67
2023/05/07 06:48:24;;;;;;;2.77;2.40;;;15.40;99.90;;;;;;5013096;28;20519;-66
2023/05/07 06:50:51;;;;;;;3.30;3.00;;;15.50;99.90;;;;;;5012612;28;20473;-66
2023/05/07 06:53:19;;;;;;;3.00;2.70;;;15.60;99.90;;;;;;5012083;28;20873;-66
2023/05/07 06:55:46;;;;;;;4.30;2.60;;;15.70;99.90;;;;;;5012397;28;20481;-67
2023/05/07 06:58:12;;;;;;;3.90;3.40;;;15.90;99.90;;;;;;5012392;28;20465;-66
2023/05/07 07:00:40;;;;;;;2.80;2.50;;;16.00;99.90;;;;;;5012412;28;20461;-67
2023/05/07 07:03:07;;;;;;;5.90;2.70;;;16.20;99.90;;;;;;4994139;28;21086;-66
2023/05/07 07:05:34;;;;;;;3.13;2.83;;;16.40;99.90;;;;;;5006543;28;20504;-66
2023/05/07 07:08:00;;;;;;;2.23;2.03;;;16.50;99.90;;;;;;5012446;28;20843;-67
2023/05/07 07:10:28;;;;;;;4.00;2.87;;;16.70;99.90;;;;;;5012674;28;20469;-66
2023/05/07 07:12:55;;;;;;;2.80;2.60;;;16.80;99.90;;;;;;5011822;28;20484;-66
2023/05/07 07:15:22;;;;;;;3.80;3.23;;;17.00;99.90;;;;;;5009045;28;20915;-66
2023/05/07 07:17:49;;;;;;;3.10;2.80;;;17.10;99.90;;;;;;4992945;28;20498;-66
2023/05/07 07:20:16;;;;;;;4.43;2.70;;;17.20;99.90;;;;;;4995653;28;20461;-67
2023/05/07 07:22:43;;;;;;;3.70;3.13;;;17.30;99.90;;;;;;4997530;28;20466;-67
2023/05/07 07:25:10;;;;;;;3.90;3.40;;;17.50;99.90;;;;;;5001071;28;20548;-67
2023/05/07 07:27:39;;;;;;;5.17;2.80;;;17.70;99.90;;;;;;4992848;28;20734;-67
2023/05/07 07:30:07;;;;;;;3.10;2.90;;;17.80;99.90;;;;;;5002261;28;20471;-66
2023/05/07 07:32:34;;;;;;;6.53;2.90;;;18.00;99.90;;;;;;5012272;28;20489;-67
2023/05/07 07:35:02;;;;;;;4.63;3.60;;;18.20;99.90;;;;;;5003500;28;20466;-67
2023/05/07 07:37:29;;;;;;;4.77;3.40;;;18.40;99.90;;;;;;5012372;28;20507;-67
2023/05/07 07:39:56;;;;;;;3.40;3.10;;;18.50;99.90;;;;;;5004033;28;20461;-67
2023/05/07 07:42:23;;;;;;;3.30;3.00;;;18.60;99.90;;;;;;5012414;28;20461;-66
2023/05/07 07:44:51;;;;;;;3.80;2.97;;;18.70;99.90;;;;;;5003737;28;20564;-66
2023/05/07 07:47:17;;;;;;;3.30;2.80;;;18.90;99.90;;;;;;4993142;28;20486;-66
2023/05/07 07:49:44;;;;;;;3.90;3.07;;;19.00;99.90;;;;;;5000467;28;20885;-67
2023/05/07 07:52:11;;;;;;;3.80;2.93;;;19.20;99.90;;;;;;4992202;28;21045;-67
2023/05/07 07:54:37;;;;;;;4.53;3.00;;;19.30;99.90;;;;;;4991525;28;20462;-66
2023/05/07 07:57:04;;;;;;;2.90;2.70;;;19.40;99.90;;;;;;5008661;28;20481;-66
2023/05/07 07:59:31;;;;;;;3.27;2.97;;;19.50;99.90;;;;;;5000314;28;20968;-67
2023/05/07 08:01:59;;;;;;;4.03;2.20;;;19.50;99.90;;;;;;5010430;28;20895;-66
2023/05/07 08:04:26;;;;;;;2.70;2.50;;;19.70;99.90;;;;;;5010276;28;20560;-66
2023/05/07 08:06:54;;;;;;;2.70;2.50;;;19.80;99.90;;;;;;5010099;28;20489;-67
2023/05/07 08:09:20;;;;;;;2.83;2.63;;;19.80;99.90;;;;;;5010084;28;20469;-67
2023/05/07 08:11:47;;;;;;;3.40;3.10;;;19.90;99.90;;;;;;5009789;28;20949;-67
2023/05/07 08:14:15;;;;;;;3.40;3.00;;;19.90;99.90;;;;;;5009927;28;20852;-66
2023/05/07 08:16:42;;;;;;;2.93;2.70;;;19.90;99.90;;;;;;5010123;28;20481;-67
2023/05/07 08:19:10;;;;;;;2.47;2.27;;;19.90;99.90;;;;;;5009002;28;20469;-67
2023/05/07 08:21:40;;;;;;;3.20;2.90;;;20.00;99.90;;;;;;5009198;28;20469;-67
2023/05/07 08:24:07;;;;;;;3.50;3.20;;;20.10;99.90;;;;;;5002432;28;20480;-67
2023/05/07 08:26:35;;;;;;;2.80;2.60;;;20.40;99.90;;;;;;5010937;28;20492;-67
2023/05/07 08:29:02;;;;;;;3.17;2.87;;;20.60;99.90;;;;;;5010330;28;20468;-67
2023/05/07 08:31:29;;;;;;;3.00;2.80;;;20.80;99.90;;;;;;5010811;28;20472;-66
2023/05/07 08:33:55;;;;;;;2.60;2.40;;;20.90;99.90;;;;;;5010511;28;20465;-66
2023/05/07 08:36:23;;;;;;;2.90;2.70;;;21.00;99.90;;;;;;5009842;28;20482;-66
2023/05/07 08:38:50;;;;;;;2.70;2.50;;;21.30;99.90;;;;;;5010085;28;20465;-66
2023/05/07 08:41:17;;;;;;;2.90;2.53;;;21.60;99.90;;;;;;5010886;28;20477;-67
2023/05/07 08:43:48;;;;;;;3.27;2.97;;;21.90;99.90;;;;;;4996331;28;20462;-67
2023/05/07 08:46:18;;;;;;;2.37;2.17;;;22.10;99.90;;;;;;4990713;28;20861;-67
2023/05/07 08:48:45;;;;;;;2.30;2.10;;;22.20;99.90;;;;;;4990051;28;20468;-66
2023/05/07 08:51:14;;;;;;;3.37;3.07;;;22.50;99.90;;;;;;4990239;28;21005;-66
2023/05/07 08:53:43;;;;;;;2.73;2.53;;;22.80;99.90;;;;;;4990110;28;20475;-66
2023/05/07 08:56:10;;;;;;;2.57;2.37;;;22.80;99.90;;;;;;5010038;28;20489;-67
2023/05/07 08:58:37;;;;;;;3.50;2.13;;;23.10;99.90;;;;;;5009871;28;20472;-66
2023/05/07 09:01:09;;;;;;;3.20;2.90;;;23.30;99.90;;;;;;5008702;28;20538;-67
2023/05/07 09:03:37;;;;;;;2.33;2.13;;;23.30;99.90;;;;;;4990362;28;20463;-67
2023/05/07 09:06:04;;;;;;;2.70;2.50;;;23.40;99.90;;;;;;4990431;28;20497;-66
2023/05/07 09:08:33;;;;;;;3.03;2.73;;;23.70;99.90;;;;;;4990679;28;20500;-66
2023/05/07 09:11:01;;;;;;;2.83;2.63;;;24.00;99.90;;;;;;4990362;28;20467;-67
2023/05/07 09:13:29;;;;;;;2.80;2.10;;;24.10;99.90;;;;;;5001140;28;20564;-67
2023/05/07 09:15:56;;;;;;;2.53;2.33;;;24.60;99.90;;;;;;5009251;28;20482;-66
2023/05/07 09:18:24;;;;;;;4.00;3.60;;;25.10;99.90;;;;;;5009951;28;20465;-67
2023/05/07 09:20:51;;;;;;;3.40;3.10;;;25.30;99.90;;;;;;4993912;28;20852;-67
2023/05/07 09:23:18;;;;;;;2.40;2.20;;;25.50;99.90;;;;;;4989153;28;20502;-66
2023/05/07 09:25:45;;;;;;;2.73;2.53;;;25.10;99.90;;;;;;4989378;28;20509;-66
2023/05/07 09:28:13;;;;;;;2.30;1.97;;;25.00;99.90;;;;;;4989926;28;20459;-67
2023/05/07 09:30:40;;;;;;;2.30;2.10;;;25.40;99.90;;;;;;4989762;28;20468;-67
2023/05/07 09:33:06;;;;;;;2.40;2.17;;;25.80;99.90;;;;;;4989727;28;21013;-67
2023/05/07 09:35:33;;;;;;;3.13;2.10;;;26.20;99.90;;;;;;4989657;28;20488;-66
2023/05/07 09:38:01;;;;;;;2.80;2.27;;;26.10;99.90;;;;;;4989770;28;20476;-66
2023/05/07 09:40:30;;;;;;;2.60;2.40;;;26.00;99.90;;;;;;4993714;28;20840;-66
2023/05/07 09:42:56;;;;;;;3.83;3.43;;;26.30;99.90;;;;;;5009161;28;20983;-66
2023/05/07 09:45:26;;;;;;;2.50;2.30;;;26.50;99.90;;;;;;5009504;28;20494;-65
2023/05/07 09:47:56;;;;;;;2.60;2.40;;;26.90;99.90;;;;;;5009808;28;20465;-66
2023/05/07 09:50:28;;;;;;;2.17;2.00;;;27.20;99.90;;;;;;5008785;28;20847;-67
2023/05/07 09:52:55;;;;;;;2.43;2.23;;;27.30;99.90;;;;;;5009237;28;20517;-67
2023/05/07 09:55:22;;;;;;;2.40;2.20;;;27.40;99.90;;;;;;5009406;28;20956;-66
2023/05/07 09:57:52;;;;;;;3.17;2.27;;;27.20;99.90;;;;;;5009834;28;20466;-68
2023/05/07 10:00:21;;;;;;;2.10;1.90;;;27.10;99.20;;;;;;5009342;28;20497;-67
2023/05/07 10:02:51;;;;;;;2.27;2.07;;;27.50;99.60;;;;;;5008875;28;20554;-67
2023/05/07 10:05:19;;;;;;;2.70;2.00;;;27.50;99.50;;;;;;5008959;28;20548;-67
2023/05/07 10:07:46;;;;;;;2.90;1.93;;;27.60;99.20;;;;;;5009793;28;20462;-67
2023/05/07 10:10:15;;;;;;;2.60;2.00;;;27.70;99.10;;;;;;5008200;28;20474;-67
2023/05/07 10:12:42;;;;;;;2.20;2.00;;;28.00;99.90;;;;;;5009454;28;20469;-66
2023/05/07 10:15:14;;;;;;;2.70;2.20;;;28.30;99.70;;;;;;5003445;28;20564;-67
2023/05/07 10:17:41;;;;;;;2.17;1.97;;;28.50;98.90;;;;;;5004953;28;20460;-67
2023/05/07 10:20:10;;;;;;;2.30;2.10;;;28.80;98.20;;;;;;4989056;28;20525;-67
2023/05/07 10:22:42;;;;;;;2.60;2.40;;;28.70;97.90;;;;;;4994118;28;20579;-67
2023/05/07 10:25:17;;;;;;;2.40;2.20;;;28.50;96.40;;;;;;4997948;28;20595;-68
2023/05/07 10:27:45;;;;;;;3.07;2.00;;;28.10;97.90;;;;;;4994187;28;20946;-67
2023/05/07 10:30:21;;;;;;;1.67;1.57;;;28.60;98.90;;;;;;5002255;28;20546;-67
2023/05/07 10:32:50;;;;;;;2.10;2.00;;;28.90;97.90;;;;;;5006689;28;20506;-67
2023/05/07 10:35:23;;;;;;;2.10;2.00;;;29.20;98.00;;;;;;5001973;28;20468;-67
2023/05/07 10:37:50;;;;;;;3.03;1.90;;;29.40;96.90;;;;;;5005147;28;20493;-70
2023/05/07 10:40:19;;;;;;;1.93;1.83;;;29.80;97.10;;;;;;4995724;28;20466;-68
2023/05/07 10:42:57;;;;;;;1.90;1.77;;;30.10;94.20;;;;;;4997188;28;20536;-68
2023/05/07 10:45:25;;;;;;;2.20;2.00;;;30.30;96.60;;;;;;5004665;28;20567;-68
2023/05/07 10:48:09;;;;;;;2.10;1.90;;;30.50;96.80;;;;;;5018544;28;20925;-69
2023/05/07 10:50:39;;;;;;;2.90;2.10;;;30.70;95.40;;;;;;5019265;28;20557;-68
2023/05/07 10:53:28;;;;;;;3.40;2.10;;;30.90;94.40;;;;;;4992493;28;20525;-68
2023/05/07 10:56:25;;;;;;;2.00;1.83;;;30.80;92.60;;;;;;5006997;28;20489;-68
2023/05/07 10:58:52;;;;;;;2.50;1.80;;;30.40;92.40;;;;;;5002549;28;20461;-69
2023/05/07 11:01:51;;;;;;;1.83;1.70;;;30.60;93.00;;;;;;4995089;28;20957;-68
2023/05/07 11:04:24;;;;;;;2.40;2.20;;;30.60;93.60;;;;;;5009162;28;20480;-68
2023/05/07 11:07:26;;;;;;;1.70;1.60;;;30.80;92.80;;;;;;5012669;28;20496;-67
2023/05/07 11:10:04;;;;;;;2.07;1.93;;;31.00;93.30;;;;;;5011667;28;20891;-67
2023/05/07 11:12:50;;;;;;;1.77;1.67;;;30.80;92.60;;;;;;5010133;28;20465;-67
2023/05/07 11:15:36;;;;;;;2.30;2.10;;;30.60;92.70;;;;;;5011787;28;20457;-67
2023/05/07 11:18:04;;;;;;;2.03;1.83;;;30.60;91.70;;;;;;5011202;28;20461;-68
2023/05/07 11:21:03;;;;;;;1.77;1.67;;;30.20;92.60;;;;;;5008992;28;20523;-67
2023/05/07 11:23:59;;;;;;;1.90;1.80;;;29.90;92.00;;;;;;5010554;28;20465;-67
2023/05/07 11:26:27;;;;;;;2.30;2.10;;;29.20;92.50;;;;;;5010497;28;20496;-66
2023/05/07 11:28:55;;;;;;;2.33;2.10;;;28.90;94.00;;;;;;5009014;28;20476;-67
2023/05/07 11:31:25;;;;;;;2.90;1.83;;;28.50;94.00;;;;;;5010854;28;20489;-67
2023/05/07 11:33:53;;;;;;;3.00;2.10;;;28.10;94.20;;;;;;5009874;28;20460;-67
2023/05/07 11:36:21;;;;;;;1.80;1.70;;;27.50;94.90;;;;;;5011692;28;20480;-68
2023/05/07 11:38:48;;;;;;;2.73;2.13;;;27.00;94.50;;;;;;5011208;28;20460;-68
2023/05/07 11:41:19;;;;;;;2.30;2.03;;;26.70;95.50;;;;;;5011154;28;20557;-67
2023/05/07 11:43:56;;;;;;;2.77;2.53;;;26.50;95.60;;;;;;5011165;28;20469;-68
2023/05/07 11:46:23;;;;;;;1.97;1.80;;;26.30;95.90;;;;;;5010356;28;20518;-67
2023/05/07 11:48:50;;;;;;;2.10;1.90;;;26.30;97.00;;;;;;5010650;28;20468;-67
2023/05/07 11:51:20;;;;;;;2.00;1.80;;;26.10;96.50;;;;;;5010249;28;20460;-65
2023/05/07 11:53:47;;;;;;;3.83;2.20;;;25.90;97.10;;;;;;5010633;28;21234;-67
2023/05/07 11:56:16;;;;;;;2.10;1.90;;;25.80;96.60;;;;;;5010998;28;20477;-65
2023/05/07 11:58:44;;;;;;;7.30;5.70;;;25.60;96.90;;;;;;5006853;28;20474;-69
2023/05/07 12:01:12;;;;;;;3.23;2.93;;;25.40;96.80;;;;;;5008164;28;20463;-68
2023/05/07 12:03:42;;;;;;;2.50;2.30;;;25.00;97.30;;;;;;4995645;28;20531;-65
2023/05/07 12:06:09;;;;;;;2.60;2.40;;;24.90;99.10;;;;;;4991003;28;20492;-66
2023/05/07 12:08:38;;;;;;;3.87;2.23;;;24.50;99.60;;;;;;5010350;28;20553;-66
2023/05/07 12:11:07;;;;;;;2.53;2.33;;;24.00;99.90;;;;;;5010600;28;20512;-65
2023/05/07 12:13:35;;;;;;;2.37;2.07;;;23.30;99.90;;;;;;5009971;28;20953;-65
2023/05/07 12:16:03;;;;;;;2.13;1.93;;;22.60;99.90;;;;;;5010559;28;20488;-67
2023/05/07 12:18:30;;;;;;;1.80;1.67;;;22.30;99.90;;;;;;5009717;28;20502;-66
2023/05/07 12:20:57;;;;;;;2.33;1.93;;;21.90;99.90;;;;;;5010276;28;20565;-66
2023/05/07 12:23:24;;;;;;;1.90;1.80;;;21.60;99.90;;;;;;5010108;28;20467;-66
2023/05/07 12:25:51;;;;;;;4.60;2.43;;;21.30;99.90;;;;;;4996577;28;20484;-65
2023/05/07 12:28:20;;;;;;;1.90;1.30;;;21.10;99.90;;;;;;5007424;28;20511;-66
2023/05/07 12:30:49;;;;;;;2.17;1.83;;;20.80;99.90;;;;;;5010025;28;20465;-67
2023/05/07 12:33:17;;;;;;;1.77;1.60;;;20.40;99.90;;;;;;5009221;28;20845;-66
2023/05/07 12:35:44;;;;;;;1.40;1.30;;;20.10;99.90;;;;;;5004156;28;20906;-66
2023/05/07 12:38:13;;;;;;;1.43;1.13;;;19.90;99.90;;;;;;4991580;28;20538;-66
2023/05/07 12:40:41;;;;;;;1.60;1.30;;;19.70;99.90;;;;;;4995325;28;20672;-66
2023/05/07 12:43:08;;;;;;;4.70;1.53;;;19.50;99.90;;;;;;4993065;28;20714;-67
2023/05/07 12:45:38;;;;;;;1.77;1.67;;;19.40;99.90;;;;;;5009521;28;20516;-66
2023/05/07 12:48:07;;;;;;;3.90;1.70;;;19.30;99.90;;;;;;5008908;28;20465;-67
2023/05/07 12:50:34;;;;;;;1.83;1.30;;;19.20;99.90;;;;;;4997320;28;20480;-67
2023/05/07 12:53:05;;;;;;;2.00;1.27;;;19.10;99.90;;;;;;5002908;28;20792;-67